Time;durP1;ratioP1;P1;durP2;ratioP2;P2;SDS_P1;SDS_P2;PMS_P1;PMS_P2;Temp;Humidity;BMP_temperature;BMP_pressure;BME280_temperature;BME280_humidity;BME280_pressure;Samples;Min_cycle;Max_cycle;Signal;HPM_P1;HPM_P2
2022/05/03 00:00:42;;;;;;;4.40;3.87;;;;;;;;;;5050561;28;20568;-75
2022/05/03 00:03:20;;;;;;;5.17;4.77;;;;;;;;;;5048863;28;20476;-77
2022/05/03 00:06:02;;;;;;;4.60;4.40;;;;;;;;;;5049644;28;20488;-75
2022/05/03 00:08:31;;;;;;;6.67;4.70;;;;;;;;;;5049338;28;20488;-76
2022/05/03 00:11:15;;;;;;;4.77;4.50;;;;;;;;;;5050493;28;20425;-76
2022/05/03 00:13:54;;;;;;;6.53;4.60;;;;;;;;;;5044368;28;20447;-76
2022/05/03 00:16:20;;;;;;;4.47;4.20;;;;;;;;;;5045624;28;20438;-76
2022/05/03 00:18:46;;;;;;;4.33;4.13;;;;;;;;;;5049863;28;20441;-76
2022/05/03 00:21:12;;;;;;;4.90;4.47;;;;;;;;;;5048195;28;20821;-76
2022/05/03 00:23:38;;;;;;;4.37;4.17;;;;;;;;;;5049464;28;20441;-75
2022/05/03 00:26:04;;;;;;;4.83;4.53;;;;;;;;;;5046106;28;20460;-77
2022/05/03 00:28:31;;;;;;;4.97;4.67;;;;;;;;;;5048444;28;20454;-76
2022/05/03 00:30:57;;;;;;;4.67;4.27;;;;;;;;;;5047623;28;20471;-76
2022/05/03 00:33:24;;;;;;;4.63;4.37;;;;;;;;;;5050119;28;20975;-77
2022/05/03 00:35:50;;;;;;;4.03;3.93;;;;;;;;;;5048524;28;20529;-77
2022/05/03 00:38:16;;;;;;;4.13;4.03;;;;;;;;;;5050291;28;20442;-77
2022/05/03 00:40:47;;;;;;;4.43;4.13;;;;;;;;;;5046154;28;20431;-76
2022/05/03 00:43:36;;;;;;;5.17;4.83;;;;;;;;;;5049092;28;20548;-75
2022/05/03 00:46:03;;;;;;;4.73;4.33;;;;;;;;;;5049638;28;20430;-76
2022/05/03 00:48:29;;;;;;;5.63;3.90;;;;;;;;;;5048876;28;20450;-76
2022/05/03 00:50:55;;;;;;;5.47;4.80;;;;;;;;;;5047245;28;20470;-76
2022/05/03 00:53:24;;;;;;;4.30;4.10;;;;;;;;;;5045907;28;20457;-76
2022/05/03 00:55:56;;;;;;;5.07;4.87;;;;;;;;;;5049184;28;20433;-77
2022/05/03 00:58:31;;;;;;;6.07;5.23;;;;;;;;;;5048907;28;20565;-77
2022/05/03 01:01:13;;;;;;;5.43;5.03;;;;;;;;;;5047155;28;20430;-75
2022/05/03 01:03:39;;;;;;;4.60;4.50;;;;;;;;;;5048556;28;20497;-75
2022/05/03 01:06:11;;;;;;;5.40;4.90;;;;;;;;;;5047459;28;20480;-76
2022/05/03 01:08:46;;;;;;;5.57;5.27;;;;;;;;;;5045428;28;20803;-76
2022/05/03 01:11:39;;;;;;;5.20;4.90;;;;;;;;;;5048953;28;20426;-75
2022/05/03 01:14:23;;;;;;;4.93;4.70;;;;;;;;;;5044346;28;20474;-75
2022/05/03 01:16:55;;;;;;;7.30;5.10;;;;;;;;;;5047559;28;20431;-76
2022/05/03 01:19:30;;;;;;;5.90;5.27;;;;;;;;;;5048867;28;20438;-76
2022/05/03 01:21:59;;;;;;;5.53;5.23;;;;;;;;;;5050168;28;20414;-75
2022/05/03 01:24:43;;;;;;;4.70;4.53;;;;;;;;;;5046507;28;20446;-76
2022/05/03 01:27:24;;;;;;;5.57;5.27;;;;;;;;;;5045230;28;20604;-76
2022/05/03 01:29:51;;;;;;;4.90;4.70;;;;;;;;;;5046894;28;21009;-76
2022/05/03 01:32:19;;;;;;;4.87;4.67;;;;;;;;;;5046661;28;20438;-76
2022/05/03 01:34:46;;;;;;;5.70;5.10;;;;;;;;;;5046475;28;20431;-76
2022/05/03 01:37:24;;;;;;;4.17;4.07;;;;;;;;;;5049519;28;20426;-77
2022/05/03 01:40:07;;;;;;;4.67;4.57;;;;;;;;;;5049032;28;20517;-76
2022/05/03 01:42:52;;;;;;;5.87;4.77;;;;;;;;;;5046247;28;20470;-77
2022/05/03 01:45:29;;;;;;;4.73;4.37;;;;;;;;;;5047487;28;20449;-76
2022/05/03 01:48:07;;;;;;;4.97;4.77;;;;;;;;;;5048483;28;20861;-76
2022/05/03 01:50:33;;;;;;;4.63;4.53;;;;;;;;;;5050099;28;20477;-77
2022/05/03 01:53:18;;;;;;;5.80;5.20;;;;;;;;;;5046885;28;20435;-76
2022/05/03 01:55:53;;;;;;;4.97;4.40;;;;;;;;;;5045085;28;20922;-75
2022/05/03 01:58:19;;;;;;;5.27;5.00;;;;;;;;;;5046026;28;20938;-75
2022/05/03 02:00:51;;;;;;;6.63;5.53;;;;;;;;;;5048138;28;20471;-75
2022/05/03 02:03:25;;;;;;;5.53;5.33;;;;;;;;;;5045221;28;20744;-75
2022/05/03 02:05:58;;;;;;;5.80;5.50;;;;;;;;;;5041967;28;20453;-77
2022/05/03 02:08:24;;;;;;;5.77;5.37;;;;;;;;;;5048795;28;20445;-77
2022/05/03 02:10:51;;;;;;;5.20;5.00;;;;;;;;;;5049273;28;20433;-77
2022/05/03 02:14:43;;;;;;;5.80;5.50;;;;;;;;;;5048211;28;20426;-77
2022/05/03 02:16:24;;;;;;;5.97;5.57;;;;;;;;;;5047051;28;20441;-78
2022/05/03 02:18:58;;;;;;;6.37;6.03;;;;;;;;;;5048148;28;20446;-76
2022/05/03 02:21:30;;;;;;;5.20;5.00;;;;;;;;;;5040679;28;20442;-77
2022/05/03 02:24:03;;;;;;;5.50;5.20;;;;;;;;;;5043468;28;20492;-77
2022/05/03 02:26:32;;;;;;;6.50;6.03;;;;;;;;;;5047263;28;20462;-77
2022/05/03 02:29:03;;;;;;;5.10;4.90;;;;;;;;;;5047725;28;20787;-77
2022/05/03 02:31:32;;;;;;;6.17;5.67;;;;;;;;;;5040474;28;20435;-77
2022/05/03 02:34:04;;;;;;;6.23;5.83;;;;;;;;;;5046245;28;20438;-75
2022/05/03 02:36:35;;;;;;;5.83;5.37;;;;;;;;;;5045362;28;20923;-77
2022/05/03 02:39:01;;;;;;;5.00;4.80;;;;;;;;;;5046744;28;20442;-78
2022/05/03 02:41:31;;;;;;;5.87;5.10;;;;;;;;;;5048095;28;20433;-77
2022/05/03 02:43:58;;;;;;;5.77;5.27;;;;;;;;;;5046916;28;20184;-77
2022/05/03 02:46:24;;;;;;;4.43;4.23;;;;;;;;;;5040189;28;20496;-77
2022/05/03 02:49:00;;;;;;;5.10;4.77;;;;;;;;;;5044114;28;20442;-75
2022/05/03 02:51:29;;;;;;;5.00;4.70;;;;;;;;;;5045018;28;20473;-75
2022/05/03 02:53:57;;;;;;;4.97;4.77;;;;;;;;;;5047116;28;20809;-75
2022/05/03 02:56:37;;;;;;;4.50;4.30;;;;;;;;;;5041739;28;20434;-76
2022/05/03 02:59:03;;;;;;;14.97;4.67;;;;;;;;;;5044790;28;20422;-75
2022/05/03 03:01:49;;;;;;;5.97;5.47;;;;;;;;;;5043242;28;20492;-77
2022/05/03 03:04:25;;;;;;;10.40;5.57;;;;;;;;;;5042279;28;20438;-75
2022/05/03 03:06:54;;;;;;;5.50;5.17;;;;;;;;;;5044057;28;20473;-77
2022/05/03 03:09:40;;;;;;;4.43;4.23;;;;;;;;;;5047354;28;21273;-77
2022/05/03 03:12:25;;;;;;;5.20;4.90;;;;;;;;;;5045231;28;20525;-76
2022/05/03 03:14:56;;;;;;;5.50;5.07;;;;;;;;;;5046135;28;20434;-75
2022/05/03 03:17:27;;;;;;;5.77;5.37;;;;;;;;;;5042288;28;20453;-75
2022/05/03 03:20:09;;;;;;;5.17;4.97;;;;;;;;;;5044793;28;20442;-75
2022/05/03 03:22:42;;;;;;;5.37;5.07;;;;;;;;;;5046416;28;20995;-77
2022/05/03 03:25:09;;;;;;;15.63;6.00;;;;;;;;;;5044158;28;20427;-76
2022/05/03 03:27:35;;;;;;;6.23;5.80;;;;;;;;;;5038808;28;20499;-77
2022/05/03 03:30:03;;;;;;;6.00;5.70;;;;;;;;;;5045798;28;20430;-76
2022/05/03 03:32:30;;;;;;;6.07;5.73;;;;;;;;;;5046511;28;20434;-77
2022/05/03 03:34:57;;;;;;;6.23;5.83;;;;;;;;;;5044277;28;20430;-75
2022/05/03 03:37:25;;;;;;;5.17;4.97;;;;;;;;;;5042107;28;20450;-75
2022/05/03 03:39:50;;;;;;;6.57;6.20;;;;;;;;;;5045115;28;20792;-75
2022/05/03 03:42:17;;;;;;;5.93;5.73;;;;;;;;;;5043835;28;20430;-75
2022/05/03 03:44:43;;;;;;;6.97;6.47;;;;;;;;;;5046101;28;20430;-78
2022/05/03 03:47:09;;;;;;;6.47;6.00;;;;;;;;;;5043391;28;20494;-77
2022/05/03 03:49:35;;;;;;;7.90;5.83;;;;;;;;;;5043274;28;20430;-77
2022/05/03 03:52:02;;;;;;;7.20;6.60;;;;;;;;;;5047271;28;20496;-78
2022/05/03 03:54:29;;;;;;;5.50;5.17;;;;;;;;;;5044421;28;20941;-75
2022/05/03 03:56:56;;;;;;;9.83;6.23;;;;;;;;;;5044594;28;20528;-77
2022/05/03 03:59:22;;;;;;;5.70;5.50;;;;;;;;;;5039516;28;20442;-75
2022/05/03 04:01:49;;;;;;;9.67;6.17;;;;;;;;;;5043514;28;20443;-77
2022/05/03 04:04:24;;;;;;;7.20;6.70;;;;;;;;;;5038208;28;20541;-77
2022/05/03 04:06:50;;;;;;;6.33;5.73;;;;;;;;;;5044203;28;20992;-75
2022/05/03 04:09:16;;;;;;;5.97;5.73;;;;;;;;;;5042328;28;20430;-75
2022/05/03 04:11:43;;;;;;;6.20;5.80;;;;;;;;;;5046480;28;20918;-77
2022/05/03 04:14:09;;;;;;;5.50;5.10;;;;;;;;;;5047431;28;20985;-75
2022/05/03 04:16:37;;;;;;;5.23;4.90;;;;;;;;;;5049697;28;20423;-77
2022/05/03 04:19:03;;;;;;;5.37;5.17;;;;;;;;;;5048651;28;20927;-78
2022/05/03 04:21:29;;;;;;;5.03;4.83;;;;;;;;;;5044561;28;20953;-76
2022/05/03 04:23:55;;;;;;;5.40;5.00;;;;;;;;;;5048352;28;20447;-76
2022/05/03 04:26:21;;;;;;;5.70;5.30;;;;;;;;;;5046538;28;20524;-76
2022/05/03 04:28:47;;;;;;;4.80;4.67;;;;;;;;;;5048796;28;20446;-77
2022/05/03 04:31:13;;;;;;;5.30;4.90;;;;;;;;;;5043921;28;20423;-75
2022/05/03 04:33:39;;;;;;;5.63;5.43;;;;;;;;;;5047315;28;20908;-75
2022/05/03 04:36:05;;;;;;;6.50;6.20;;;;;;;;;;5047367;28;20509;-77
2022/05/03 04:38:31;;;;;;;6.10;5.80;;;;;;;;;;5047686;28;20568;-77
2022/05/03 04:40:58;;;;;;;7.47;7.00;;;;;;;;;;5045787;28;20992;-78
2022/05/03 04:43:24;;;;;;;9.63;6.93;;;;;;;;;;5045237;28;20546;-76
2022/05/03 04:45:51;;;;;;;7.80;7.17;;;;;;;;;;5048641;28;20851;-75
2022/05/03 04:48:17;;;;;;;9.10;8.40;;;;;;;;;;5047544;28;20481;-78
2022/05/03 04:50:43;;;;;;;8.70;8.10;;;;;;;;;;5044549;28;20474;-77
2022/05/03 04:53:09;;;;;;;8.97;8.10;;;;;;;;;;5050846;28;20969;-76
2022/05/03 04:55:38;;;;;;;10.37;9.50;;;;;;;;;;5048970;28;20426;-76
2022/05/03 04:58:04;;;;;;;7.87;7.27;;;;;;;;;;5045950;28;20423;-77
2022/05/03 05:00:30;;;;;;;5.93;5.53;;;;;;;;;;5046795;28;20457;-75
2022/05/03 05:02:56;;;;;;;8.10;6.07;;;;;;;;;;5048190;28;20470;-77
2022/05/03 05:05:22;;;;;;;7.33;6.30;;;;;;;;;;5049229;28;20435;-76
2022/05/03 05:07:48;;;;;;;7.07;6.57;;;;;;;;;;5047042;28;20484;-76
2022/05/03 05:10:23;;;;;;;6.87;6.00;;;;;;;;;;5046428;28;20489;-75
2022/05/03 05:12:49;;;;;;;6.47;5.83;;;;;;;;;;5048784;28;20437;-76
2022/05/03 05:15:16;;;;;;;13.33;6.77;;;;;;;;;;5048892;28;20431;-77
2022/05/03 05:17:42;;;;;;;6.40;6.00;;;;;;;;;;5048209;28;20938;-76
2022/05/03 05:20:08;;;;;;;6.57;5.97;;;;;;;;;;5046015;28;20458;-75
2022/05/03 05:22:34;;;;;;;5.73;5.37;;;;;;;;;;5046417;28;20442;-75
2022/05/03 05:25:00;;;;;;;6.10;5.80;;;;;;;;;;5048503;28;20445;-76
2022/05/03 05:27:26;;;;;;;6.60;6.20;;;;;;;;;;5040535;28;21004;-76
2022/05/03 05:29:52;;;;;;;6.73;5.97;;;;;;;;;;5040954;28;20432;-77
2022/05/03 05:32:18;;;;;;;6.87;6.47;;;;;;;;;;5045162;28;20977;-78
2022/05/03 05:34:45;;;;;;;5.80;5.27;;;;;;;;;;5048283;28;20442;-76
2022/05/03 05:37:10;;;;;;;6.40;5.93;;;;;;;;;;5039513;28;20449;-76
2022/05/03 05:39:36;;;;;;;6.63;6.20;;;;;;;;;;5047745;28;20430;-75
2022/05/03 05:42:02;;;;;;;7.57;6.00;;;;;;;;;;5048013;28;20946;-76
2022/05/03 05:44:29;;;;;;;9.30;6.33;;;;;;;;;;5049546;28;20462;-75
2022/05/03 05:46:55;;;;;;;7.47;6.10;;;;;;;;;;5050319;28;20480;-76
2022/05/03 05:49:21;;;;;;;6.77;6.47;;;;;;;;;;5048085;28;20972;-75
2022/05/03 05:51:47;;;;;;;7.53;6.97;;;;;;;;;;5046675;28;20461;-75
2022/05/03 05:54:13;;;;;;;7.13;6.73;;;;;;;;;;5050258;28;20414;-76
2022/05/03 05:56:41;;;;;;;8.00;7.40;;;;;;;;;;5048294;28;20439;-74
2022/05/03 05:59:07;;;;;;;6.60;6.17;;;;;;;;;;5048580;28;20512;-77
2022/05/03 06:01:40;;;;;;;6.47;5.63;;;;;;;;;;5047007;28;20430;-77
2022/05/03 06:04:07;;;;;;;6.43;6.13;;;;;;;;;;5045756;28;20454;-75
2022/05/03 06:06:35;;;;;;;7.90;7.20;;;;;;;;;;5048083;28;21058;-75
2022/05/03 06:09:02;;;;;;;6.57;6.20;;;;;;;;;;5050056;28;21001;-76
2022/05/03 06:11:29;;;;;;;6.00;5.50;;;;;;;;;;5048814;28;20978;-75
2022/05/03 06:13:55;;;;;;;7.03;6.50;;;;;;;;;;5050480;28;20915;-74
2022/05/03 06:16:21;;;;;;;5.80;5.53;;;;;;;;;;5043210;28;20431;-75
2022/05/03 06:18:47;;;;;;;10.07;6.27;;;;;;;;;;5044061;28;20434;-77
2022/05/03 06:21:14;;;;;;;6.10;5.80;;;;;;;;;;5046653;28;20465;-76
2022/05/03 06:23:40;;;;;;;6.10;5.80;;;;;;;;;;5041895;28;20446;-75
2022/05/03 06:26:06;;;;;;;7.00;6.40;;;;;;;;;;5045057;28;20426;-76
2022/05/03 06:28:32;;;;;;;6.83;6.30;;;;;;;;;;5046634;28;20551;-75
2022/05/03 06:30:58;;;;;;;7.87;7.30;;;;;;;;;;5039233;28;20439;-74
2022/05/03 06:33:24;;;;;;;6.03;5.73;;;;;;;;;;5044167;28;20446;-76
2022/05/03 06:35:50;;;;;;;7.60;7.00;;;;;;;;;;5045937;28;20433;-76
2022/05/03 06:38:16;;;;;;;7.37;6.77;;;;;;;;;;5046324;28;20432;-75
2022/05/03 06:40:42;;;;;;;7.20;6.73;;;;;;;;;;5049506;28;21752;-76
2022/05/03 06:43:09;;;;;;;13.17;7.37;;;;;;;;;;5046639;28;20426;-76
2022/05/03 06:45:35;;;;;;;9.13;8.50;;;;;;;;;;5049125;28;20430;-76
2022/05/03 06:48:01;;;;;;;11.17;8.10;;;;;;;;;;5046314;28;20543;-75
2022/05/03 06:50:29;;;;;;;9.17;8.17;;;;;;;;;;5048163;28;20469;-75
2022/05/03 06:52:55;;;;;;;9.50;8.57;;;;;;;;;;5047469;28;20435;-75
2022/05/03 06:55:21;;;;;;;8.60;7.97;;;;;;;;;;5047328;28;20414;-75
2022/05/03 06:57:48;;;;;;;8.50;7.80;;;;;;;;;;5047318;28;20438;-75
2022/05/03 07:00:14;;;;;;;10.00;9.07;;;;;;;;;;5049233;28;21396;-75
2022/05/03 07:02:41;;;;;;;10.97;9.90;;;;;;;;;;5048798;28;20922;-75
2022/05/03 07:05:07;;;;;;;11.50;8.80;;;;;;;;;;5047491;28;20431;-75
2022/05/03 07:07:34;;;;;;;11.67;10.47;;;;;;;;;;5046200;28;21071;-75
2022/05/03 07:10:00;;;;;;;9.13;8.40;;;;;;;;;;5046350;28;20441;-75
2022/05/03 07:12:26;;;;;;;10.13;9.17;;;;;;;;;;5045640;28;20423;-75
2022/05/03 07:14:52;;;;;;;9.77;9.07;;;;;;;;;;5045868;28;20441;-75
2022/05/03 07:22:48;;;;;;;11.27;10.13;;;;;;;;;;5047419;28;20934;-76
2022/05/03 07:25:17;;;;;;;10.50;9.60;;;;;;;;;;5047951;28;21006;-75
2022/05/03 07:27:46;;;;;;;11.00;10.00;;;;;;;;;;5044763;28;20478;-75
2022/05/03 07:30:15;;;;;;;10.80;9.80;;;;;;;;;;5048130;28;20457;-77
2022/05/03 07:32:44;;;;;;;10.83;9.17;;;;;;;;;;5048105;28;20462;-75
2022/05/03 07:35:10;;;;;;;14.50;10.10;;;;;;;;;;5047596;28;20422;-76
2022/05/03 07:37:36;;;;;;;10.20;9.40;;;;;;;;;;5048626;28;20962;-76
2022/05/03 07:40:03;;;;;;;9.67;8.73;;;;;;;;;;5045896;28;20437;-76
2022/05/03 07:42:29;;;;;;;10.00;9.17;;;;;;;;;;5046882;28;20557;-75
2022/05/03 07:44:55;;;;;;;9.33;8.43;;;;;;;;;;5046833;28;20862;-75
2022/05/03 07:47:21;;;;;;;10.37;9.40;;;;;;;;;;5048233;28;20474;-76
2022/05/03 07:49:47;;;;;;;8.97;8.20;;;;;;;;;;5047283;28;20549;-75
2022/05/03 07:52:13;;;;;;;10.33;9.43;;;;;;;;;;5052088;28;20426;-76
2022/05/03 07:54:44;;;;;;;17.00;8.90;;;;;;;;;;5051670;28;20422;-75
2022/05/03 07:57:12;;;;;;;10.37;9.40;;;;;;;;;;5051822;28;20522;-74
2022/05/03 07:59:38;;;;;;;10.00;9.07;;;;;;;;;;5047454;28;20434;-74
2022/05/03 08:02:04;;;;;;;11.07;9.97;;;;;;;;;;5050340;28;20430;-76
2022/05/03 08:04:30;;;;;;;10.37;9.37;;;;;;;;;;5052493;28;20788;-75
2022/05/03 08:06:56;;;;;;;14.83;10.03;;;;;;;;;;5047847;28;20808;-75
2022/05/03 08:09:22;;;;;;;10.33;9.57;;;;;;;;;;5048752;28;20430;-75
2022/05/03 08:11:48;;;;;;;9.90;9.00;;;;;;;;;;5052757;28;20721;-76
2022/05/03 08:14:14;;;;;;;11.27;9.97;;;;;;;;;;5048713;28;20490;-75
2022/05/03 08:16:40;;;;;;;10.77;9.63;;;;;;;;;;5052377;28;20925;-75
2022/05/03 08:19:06;;;;;;;9.27;8.47;;;;;;;;;;5050281;28;20430;-75
2022/05/03 08:21:35;;;;;;;11.70;9.17;;;;;;;;;;5051454;28;20430;-75
2022/05/03 08:24:01;;;;;;;10.80;9.77;;;;;;;;;;5050208;28;20446;-76
2022/05/03 08:26:29;;;;;;;11.73;10.63;;;;;;;;;;5052168;28;20480;-76
2022/05/03 08:28:55;;;;;;;9.50;8.70;;;;;;;;;;5050484;28;20444;-76
2022/05/03 08:31:21;;;;;;;13.87;10.03;;;;;;;;;;5052240;28;20854;-76
2022/05/03 08:33:47;;;;;;;10.73;10.00;;;;;;;;;;5052127;28;21020;-75
2022/05/03 08:36:14;;;;;;;9.67;8.87;;;;;;;;;;5050985;28;20953;-74
2022/05/03 08:44:09;;;;;;;11.20;10.30;;;;;;;;;;5050847;28;20402;-76
2022/05/03 08:46:36;;;;;;;9.87;9.00;;;;;;;;;;5052002;28;20465;-76
2022/05/03 08:49:03;;;;;;;9.27;8.47;;;;;;;;;;5049262;28;20521;-76
2022/05/03 08:51:30;;;;;;;17.43;9.57;;;;;;;;;;5052110;28;20469;-75
2022/05/03 08:53:57;;;;;;;9.73;8.93;;;;;;;;;;5052188;28;20415;-75
2022/05/03 08:56:23;;;;;;;10.07;9.00;;;;;;;;;;5047717;28;20451;-76
2022/05/03 08:58:49;;;;;;;11.03;9.53;;;;;;;;;;5049905;28;20431;-76
2022/05/03 09:01:15;;;;;;;10.27;9.23;;;;;;;;;;5050430;28;20442;-77
2022/05/03 09:03:41;;;;;;;10.70;8.60;;;;;;;;;;5048745;28;20426;-76
2022/05/03 09:06:08;;;;;;;12.97;9.30;;;;;;;;;;5051521;28;20434;-75
2022/05/03 09:08:34;;;;;;;12.27;9.53;;;;;;;;;;5050003;28;20482;-76
2022/05/03 09:11:11;;;;;;;9.77;8.97;;;;;;;;;;5048909;28;20461;-75
2022/05/03 09:13:37;;;;;;;9.27;8.53;;;;;;;;;;5050909;28;20918;-77
2022/05/03 09:16:11;;;;;;;9.50;8.80;;;;;;;;;;5049940;28;21335;-76
2022/05/03 09:18:38;;;;;;;10.67;8.30;;;;;;;;;;5049219;28;20439;-76
2022/05/03 09:24:01;;;;;;;8.93;8.17;;;;;;;;;;5051452;28;20442;-76
2022/05/03 09:26:28;;;;;;;8.83;8.20;;;;;;;;;;5047319;28;20430;-75
2022/05/03 09:29:05;;;;;;;9.13;8.40;;;;;;;;;;5048299;28;20438;-76
2022/05/03 09:31:31;;;;;;;10.10;9.33;;;;;;;;;;5049313;28;20414;-76
2022/05/03 09:33:59;;;;;;;11.60;9.53;;;;;;;;;;5050281;28;20430;-75
2022/05/03 09:36:26;;;;;;;10.63;9.73;;;;;;;;;;5048490;28;20418;-75
2022/05/03 09:38:54;;;;;;;10.20;9.30;;;;;;;;;;5047072;28;20850;-75
2022/05/03 09:41:21;;;;;;;10.47;9.70;;;;;;;;;;5044241;28;20927;-75
2022/05/03 09:44:02;;;;;;;8.73;8.13;;;;;;;;;;5050196;28;20430;-75
2022/05/03 09:46:48;;;;;;;11.37;8.90;;;;;;;;;;5048571;28;20791;-76
2022/05/03 09:49:14;;;;;;;10.40;8.77;;;;;;;;;;5048322;28;20906;-75
2022/05/03 09:51:40;;;;;;;8.67;8.07;;;;;;;;;;5050834;28;21016;-74
2022/05/03 09:54:06;;;;;;;14.17;7.80;;;;;;;;;;5047730;28;20423;-75
2022/05/03 09:56:34;;;;;;;9.17;8.37;;;;;;;;;;5047166;28;20846;-75
2022/05/03 09:59:03;;;;;;;4.33;4.13;;;;;;;;;;5047859;28;20438;-75
2022/05/03 10:01:30;;;;;;;7.00;6.60;;;;;;;;;;5050388;28;20484;-75
2022/05/03 10:03:56;;;;;;;9.70;6.50;;;;;;;;;;5049567;28;20423;-75
2022/05/03 10:06:23;;;;;;;7.57;6.87;;;;;;;;;;5041504;28;20541;-75
2022/05/03 10:08:49;;;;;;;8.80;8.07;;;;;;;;;;5047349;28;20504;-75
2022/05/03 10:11:19;;;;;;;7.97;7.40;;;;;;;;;;5048551;28;20414;-77
2022/05/03 10:13:45;;;;;;;7.57;7.10;;;;;;;;;;5046437;28;20452;-76
2022/05/03 10:21:50;;;;;;;6.70;6.30;;;;;;;;;;5049254;28;20410;-76
2022/05/03 10:24:16;;;;;;;7.03;6.50;;;;;;;;;;5042293;28;20426;-76
2022/05/03 10:27:01;;;;;;;6.80;6.27;;;;;;;;;;5046477;28;20975;-75
2022/05/03 10:29:28;;;;;;;6.83;6.10;;;;;;;;;;5045378;28;20515;-75
2022/05/03 10:32:14;;;;;;;5.87;5.50;;;;;;;;;;5046618;28;20439;-75
2022/05/03 10:34:40;;;;;;;6.40;6.03;;;;;;;;;;5048995;28;20430;-75
2022/05/03 10:37:11;;;;;;;7.00;4.43;;;;;;;;;;5048227;28;20433;-75
2022/05/03 10:39:45;;;;;;;5.10;4.80;;;;;;;;;;5049462;28;20428;-76
2022/05/03 10:42:12;;;;;;;5.40;5.20;;;;;;;;;;5046747;28;20949;-75
2022/05/03 10:44:44;;;;;;;6.20;5.80;;;;;;;;;;5046967;28;20942;-75
2022/05/03 10:47:11;;;;;;;5.17;4.87;;;;;;;;;;5047851;28;20478;-75
2022/05/03 10:49:56;;;;;;;5.20;4.90;;;;;;;;;;5046143;28;20435;-75
2022/05/03 10:52:22;;;;;;;5.23;4.93;;;;;;;;;;5044974;28;20608;-75
2022/05/03 10:55:04;;;;;;;5.20;4.73;;;;;;;;;;5046964;28;20910;-74
2022/05/03 10:57:30;;;;;;;11.83;3.77;;;;;;;;;;5060905;28;20431;-75
2022/05/03 10:59:57;;;;;;;3.50;3.40;;;;;;;;;;5047581;28;20475;-74
2022/05/03 11:02:23;;;;;;;3.17;3.07;;;;;;;;;;5043953;28;20525;-74
2022/05/03 11:05:08;;;;;;;3.43;3.33;;;;;;;;;;5045320;28;20518;-75
2022/05/03 11:07:34;;;;;;;3.40;3.30;;;;;;;;;;5047014;28;20517;-75
2022/05/03 11:10:19;;;;;;;3.30;3.20;;;;;;;;;;5046769;28;20957;-75
2022/05/03 11:12:49;;;;;;;2.83;2.73;;;;;;;;;;5046635;28;20441;-75
2022/05/03 11:15:15;;;;;;;3.27;3.10;;;;;;;;;;5043029;28;20488;-75
2022/05/03 11:17:44;;;;;;;3.17;2.70;;;;;;;;;;5048176;28;20426;-75
2022/05/03 11:20:10;;;;;;;3.53;3.43;;;;;;;;;;5047257;28;20852;-74
2022/05/03 11:22:36;;;;;;;3.50;3.30;;;;;;;;;;5048179;28;20473;-75
2022/05/03 11:25:07;;;;;;;4.10;2.33;;;;;;;;;;5048298;28;20422;-76
2022/05/03 11:27:33;;;;;;;2.07;2.07;;;;;;;;;;5047191;28;20496;-74
2022/05/03 11:30:00;;;;;;;2.07;2.07;;;;;;;;;;5046236;28;20473;-74
2022/05/03 11:32:31;;;;;;;2.40;2.30;;;;;;;;;;5048110;28;20426;-74
2022/05/03 11:35:01;;;;;;;2.40;2.40;;;;;;;;;;5044441;28;20468;-73
2022/05/03 11:37:27;;;;;;;2.37;2.27;;;;;;;;;;5048200;28;20810;-74
2022/05/03 11:39:53;;;;;;;2.43;2.23;;;;;;;;;;5047251;28;20473;-74
2022/05/03 11:42:21;;;;;;;1.87;1.87;;;;;;;;;;5043417;28;20930;-73
2022/05/03 11:44:47;;;;;;;2.90;2.80;;;;;;;;;;5046842;28;20454;-73
2022/05/03 11:47:15;;;;;;;4.30;2.63;;;;;;;;;;5048348;28;20563;-76
2022/05/03 11:49:43;;;;;;;2.30;2.20;;;;;;;;;;5046552;28;21782;-74
2022/05/03 11:57:42;;;;;;;2.50;2.40;;;;;;;;;;5048390;28;20501;-74
2022/05/03 12:00:11;;;;;;;2.30;2.20;;;;;;;;;;5048075;28;20958;-75
2022/05/03 12:02:43;;;;;;;2.67;2.57;;;;;;;;;;5048477;28;20464;-74
2022/05/03 12:05:18;;;;;;;5.67;2.27;;;;;;;;;;5047556;28;20422;-74
2022/05/03 12:07:46;;;;;;;2.40;1.83;;;;;;;;;;5046231;28;20482;-74
2022/05/03 12:10:16;;;;;;;2.23;2.23;;;;;;;;;;5046102;28;20434;-75
2022/05/03 12:12:45;;;;;;;2.50;2.33;;;;;;;;;;5048534;28;20426;-75
2022/05/03 12:15:24;;;;;;;2.40;2.23;;;;;;;;;;5045548;28;20949;-74
2022/05/03 12:17:56;;;;;;;2.40;2.40;;;;;;;;;;5039215;28;20437;-75
2022/05/03 12:20:22;;;;;;;1.90;1.90;;;;;;;;;;5047819;28;20418;-74
2022/05/03 12:23:08;;;;;;;2.53;2.50;;;;;;;;;;5024738;28;20458;-74
2022/05/03 12:25:34;;;;;;;2.93;2.70;;;;;;;;;;5041973;28;20481;-74
2022/05/03 12:28:06;;;;;;;2.57;2.50;;;;;;;;;;5046741;28;20478;-75
2022/05/03 12:30:33;;;;;;;2.27;2.27;;;;;;;;;;5045674;28;20449;-77
2022/05/03 12:33:04;;;;;;;2.17;2.07;;;;;;;;;;5048021;28;20429;-75
2022/05/03 12:35:31;;;;;;;2.40;2.37;;;;;;;;;;5049540;28;20506;-76
2022/05/03 12:37:57;;;;;;;10.13;1.90;;;;;;;;;;5051852;28;20456;-73
2022/05/03 12:40:27;;;;;;;2.47;2.37;;;;;;;;;;5052248;28;20816;-74
2022/05/03 12:42:53;;;;;;;2.00;1.97;;;;;;;;;;5050790;28;20426;-73
2022/05/03 12:45:22;;;;;;;2.07;1.87;;;;;;;;;;5052061;28;20891;-76
2022/05/03 12:47:48;;;;;;;1.93;1.83;;;;;;;;;;5050596;28;20482;-75
2022/05/03 12:50:15;;;;;;;1.63;1.63;;;;;;;;;;5050720;28;20472;-74
2022/05/03 12:52:41;;;;;;;1.70;1.70;;;;;;;;;;5051963;28;20521;-78
2022/05/03 12:55:07;;;;;;;1.70;1.43;;;;;;;;;;5051947;28;20449;-77
2022/05/03 13:00:18;;;;;;;1.70;1.60;;;;;;;;;;5052202;28;20459;-74
2022/05/03 13:02:44;;;;;;;2.00;1.80;;;;;;;;;;5051268;28;20784;-74
2022/05/03 13:05:10;;;;;;;1.57;1.57;;;;;;;;;;5051271;28;21295;-73
2022/05/03 13:07:36;;;;;;;2.00;1.90;;;;;;;;;;5051180;28;20940;-73
2022/05/03 13:10:02;;;;;;;2.17;2.17;;;;;;;;;;5051768;28;20414;-74
2022/05/03 13:12:30;;;;;;;2.40;2.20;;;;;;;;;;5051421;28;20512;-75
2022/05/03 13:14:56;;;;;;;1.07;1.07;;;;;;;;;;5051783;28;20439;-78
2022/05/03 13:17:22;;;;;;;1.67;1.67;;;;;;;;;;5050328;28;20414;-74
2022/05/03 13:19:48;;;;;;;1.80;1.80;;;;;;;;;;5050975;28;20579;-78
2022/05/03 13:22:14;;;;;;;1.27;1.27;;;;;;;;;;5051546;28;20426;-77
2022/05/03 13:24:40;;;;;;;2.47;1.67;;;;;;;;;;5051410;28;20512;-80
2022/05/03 13:27:06;;;;;;;1.60;1.50;;;;;;;;;;5050038;28;20473;-76
2022/05/03 13:29:32;;;;;;;5.73;1.63;;;;;;;;;;5051160;28;20430;-79
2022/05/03 13:32:00;;;;;;;1.33;1.33;;;;;;;;;;5051091;28;20456;-78
2022/05/03 13:34:26;;;;;;;1.57;1.47;;;;;;;;;;5050968;28;20430;-78
2022/05/03 13:42:22;;;;;;;1.67;1.53;;;;;;;;;;5050620;28;20445;-75
2022/05/03 13:44:48;;;;;;;1.60;1.60;;;;;;;;;;5049810;28;20465;-76
2022/05/03 13:47:14;;;;;;;8.00;1.60;;;;;;;;;;5048937;28;20477;-73
2022/05/03 13:49:42;;;;;;;4.13;1.23;;;;;;;;;;5050876;28;20779;-73
2022/05/03 13:52:08;;;;;;;3.33;1.70;;;;;;;;;;5050740;28;20556;-75
2022/05/03 13:54:34;;;;;;;1.60;1.50;;;;;;;;;;5049696;28;20472;-74
2022/05/03 13:57:00;;;;;;;2.93;2.13;;;;;;;;;;5050368;28;20946;-74
2022/05/03 13:59:26;;;;;;;2.37;2.27;;;;;;;;;;5050261;28;20430;-74
2022/05/03 14:01:52;;;;;;;2.70;2.40;;;;;;;;;;5050664;28;20891;-75
2022/05/03 14:04:18;;;;;;;2.43;2.43;;;;;;;;;;5049975;28;20419;-76
2022/05/03 14:06:44;;;;;;;3.30;3.13;;;;;;;;;;5050433;28;20423;-75
2022/05/03 14:09:10;;;;;;;2.70;2.20;;;;;;;;;;5050224;28;20803;-76
2022/05/03 14:11:36;;;;;;;2.60;2.50;;;;;;;;;;5050870;28;20427;-76
2022/05/03 14:14:02;;;;;;;2.90;2.80;;;;;;;;;;5050299;28;20503;-73
2022/05/03 14:16:31;;;;;;;5.30;2.30;;;;;;;;;;5050038;28;20449;-73
2022/05/03 14:19:00;;;;;;;2.23;2.23;;;;;;;;;;5047519;28;20928;-78
2022/05/03 14:21:27;;;;;;;2.17;2.10;;;;;;;;;;5050200;28;20509;-75
2022/05/03 14:23:53;;;;;;;2.00;2.00;;;;;;;;;;5048819;28;20430;-74
2022/05/03 14:26:19;;;;;;;5.40;2.10;;;;;;;;;;5050413;28;20476;-74
2022/05/03 14:28:48;;;;;;;2.80;2.70;;;;;;;;;;5043612;28;20495;-73
2022/05/03 14:31:14;;;;;;;3.17;2.80;;;;;;;;;;5045221;28;20472;-74
2022/05/03 14:33:40;;;;;;;2.67;2.50;;;;;;;;;;5049666;28;20434;-73
2022/05/03 14:36:06;;;;;;;4.23;3.83;;;;;;;;;;5049937;28;20422;-77
2022/05/03 14:38:32;;;;;;;2.30;2.30;;;;;;;;;;5049536;28;20462;-74
2022/05/03 14:40:58;;;;;;;4.77;2.93;;;;;;;;;;5050020;28;20446;-73
2022/05/03 14:43:24;;;;;;;2.70;2.47;;;;;;;;;;5047379;28;20435;-73
2022/05/03 14:45:49;;;;;;;10.57;2.00;;;;;;;;;;5049637;28;20423;-73
2022/05/03 14:48:16;;;;;;;2.03;1.90;;;;;;;;;;5048954;28;20477;-75
2022/05/03 14:50:42;;;;;;;3.20;1.90;;;;;;;;;;5049649;28;20470;-75
2022/05/03 14:53:10;;;;;;;5.13;2.03;;;;;;;;;;5048260;28;20414;-73
2022/05/03 14:55:36;;;;;;;1.93;1.80;;;;;;;;;;5048803;28;20547;-75
2022/05/03 15:03:33;;;;;;;2.97;2.87;;;;;;;;;;5048928;28;20417;-72
2022/05/03 15:05:59;;;;;;;6.10;3.70;;;;;;;;;;5049419;28;20427;-72
2022/05/03 15:08:25;;;;;;;2.10;2.00;;;;;;;;;;5047973;28;20556;-73
2022/05/03 15:10:51;;;;;;;2.83;2.00;;;;;;;;;;5049497;28;20410;-75
2022/05/03 15:13:17;;;;;;;1.40;1.40;;;;;;;;;;5049144;28;20787;-74
2022/05/03 15:15:43;;;;;;;1.37;1.37;;;;;;;;;;5049106;28;20411;-75
2022/05/03 15:18:10;;;;;;;3.73;2.10;;;;;;;;;;5044988;28;20495;-77
2022/05/03 15:20:37;;;;;;;1.60;1.10;;;;;;;;;;5038254;28;20438;-74
2022/05/03 15:25:49;;;;;;;2.10;1.50;;;;;;;;;;5047697;28;20524;-75
2022/05/03 15:28:15;;;;;;;1.67;1.67;;;;;;;;;;5037797;28;20544;-79
2022/05/03 15:30:44;;;;;;;1.90;1.07;;;;;;;;;;5046809;28;20556;-74